sensor_id;sensor_type;location;lat;lon;timestamp;P1;durP1;ratioP1;P2;durP2;ratioP2
51792;SDS011;37850;53.178;6.376;2024-02-21T00:02:20;16.77;;;3.38;;
51792;SDS011;37850;53.178;6.376;2024-02-21T00:04:46;24.77;;;4.03;;
51792;SDS011;37850;53.178;6.376;2024-02-21T00:07:11;22.83;;;4.32;;
51792;SDS011;37850;53.178;6.376;2024-02-21T00:09:37;22.77;;;3.97;;
51792;SDS011;37850;53.178;6.376;2024-02-21T00:12:03;21.65;;;3.83;;
51792;SDS011;37850;53.178;6.376;2024-02-21T00:14:30;20.83;;;4.10;;
51792;SDS011;37850;53.178;6.376;2024-02-21T00:16:56;16.85;;;3.65;;
51792;SDS011;37850;53.178;6.376;2024-02-21T00:19:22;28.85;;;4.68;;
51792;SDS011;37850;53.178;6.376;2024-02-21T00:21:48;20.08;;;3.33;;
51792;SDS011;37850;53.178;6.376;2024-02-21T00:24:13;20.25;;;3.58;;
51792;SDS011;37850;53.178;6.376;2024-02-21T00:26:39;21.00;;;4.63;;
51792;SDS011;37850;53.178;6.376;2024-02-21T00:29:05;26.10;;;3.95;;
51792;SDS011;37850;53.178;6.376;2024-02-21T00:31:30;24.80;;;3.60;;
51792;SDS011;37850;53.178;6.376;2024-02-21T00:33:56;23.63;;;3.95;;
51792;SDS011;37850;53.178;6.376;2024-02-21T00:36:23;19.67;;;3.78;;
51792;SDS011;37850;53.178;6.376;2024-02-21T00:38:48;27.02;;;4.03;;
51792;SDS011;37850;53.178;6.376;2024-02-21T00:41:14;20.30;;;3.50;;
51792;SDS011;37850;53.178;6.376;2024-02-21T00:43:41;21.25;;;4.30;;
51792;SDS011;37850;53.178;6.376;2024-02-21T00:46:07;16.17;;;3.78;;
51792;SDS011;37850;53.178;6.376;2024-02-21T00:48:32;30.60;;;4.55;;
51792;SDS011;37850;53.178;6.376;2024-02-21T00:50:59;24.25;;;4.93;;
51792;SDS011;37850;53.178;6.376;2024-02-21T00:53:25;20.55;;;4.00;;
51792;SDS011;37850;53.178;6.376;2024-02-21T00:55:50;18.48;;;5.10;;
51792;SDS011;37850;53.178;6.376;2024-02-21T00:58:16;27.45;;;4.68;;
51792;SDS011;37850;53.178;6.376;2024-02-21T01:00:42;23.23;;;5.13;;
51792;SDS011;37850;53.178;6.376;2024-02-21T01:03:07;26.05;;;4.78;;
51792;SDS011;37850;53.178;6.376;2024-02-21T01:05:33;28.35;;;5.05;;
51792;SDS011;37850;53.178;6.376;2024-02-21T01:07:59;26.98;;;5.45;;
51792;SDS011;37850;53.178;6.376;2024-02-21T01:10:25;23.98;;;4.53;;
51792;SDS011;37850;53.178;6.376;2024-02-21T01:12:50;21.33;;;4.28;;
51792;SDS011;37850;53.178;6.376;2024-02-21T01:15:16;17.05;;;4.88;;
51792;SDS011;37850;53.178;6.376;2024-02-21T01:17:42;31.52;;;6.13;;
51792;SDS011;37850;53.178;6.376;2024-02-21T01:20:08;20.23;;;4.65;;
51792;SDS011;37850;53.178;6.376;2024-02-21T01:22:34;29.48;;;5.43;;
51792;SDS011;37850;53.178;6.376;2024-02-21T01:24:59;21.17;;;5.15;;
51792;SDS011;37850;53.178;6.376;2024-02-21T01:27:25;21.05;;;5.13;;
51792;SDS011;37850;53.178;6.376;2024-02-21T01:29:51;25.15;;;5.45;;
51792;SDS011;37850;53.178;6.376;2024-02-21T01:32:16;23.33;;;5.65;;
51792;SDS011;37850;53.178;6.376;2024-02-21T01:34:42;24.48;;;5.25;;
51792;SDS011;37850;53.178;6.376;2024-02-21T01:37:08;18.95;;;5.05;;
51792;SDS011;37850;53.178;6.376;2024-02-21T01:39:34;21.52;;;5.07;;
51792;SDS011;37850;53.178;6.376;2024-02-21T01:42:00;14.40;;;4.45;;
51792;SDS011;37850;53.178;6.376;2024-02-21T01:44:26;24.13;;;5.07;;
51792;SDS011;37850;53.178;6.376;2024-02-21T01:46:54;13.95;;;4.43;;
51792;SDS011;37850;53.178;6.376;2024-02-21T01:49:20;18.27;;;5.80;;
51792;SDS011;37850;53.178;6.376;2024-02-21T01:51:47;19.45;;;5.00;;
51792;SDS011;37850;53.178;6.376;2024-02-21T01:54:13;15.75;;;4.43;;
51792;SDS011;37850;53.178;6.376;2024-02-21T01:56:40;17.58;;;4.85;;
51792;SDS011;37850;53.178;6.376;2024-02-21T01:59:05;23.42;;;4.82;;
51792;SDS011;37850;53.178;6.376;2024-02-21T02:01:32;17.50;;;4.05;;
51792;SDS011;37850;53.178;6.376;2024-02-21T02:03:58;17.60;;;4.47;;
51792;SDS011;37850;53.178;6.376;2024-02-21T02:06:24;18.10;;;4.63;;
51792;SDS011;37850;53.178;6.376;2024-02-21T02:08:50;15.80;;;4.95;;
51792;SDS011;37850;53.178;6.376;2024-02-21T02:11:16;21.08;;;4.40;;
51792;SDS011;37850;53.178;6.376;2024-02-21T02:13:42;11.93;;;3.72;;
51792;SDS011;37850;53.178;6.376;2024-02-21T02:16:08;22.15;;;3.92;;
51792;SDS011;37850;53.178;6.376;2024-02-21T02:18:33;18.70;;;4.95;;
51792;SDS011;37850;53.178;6.376;2024-02-21T02:20:59;21.33;;;4.40;;
51792;SDS011;37850;53.178;6.376;2024-02-21T02:25:52;23.98;;;4.50;;
51792;SDS011;37850;53.178;6.376;2024-02-21T02:28:18;26.73;;;4.97;;
51792;SDS011;37850;53.178;6.376;2024-02-21T02:30:44;22.83;;;4.05;;
51792;SDS011;37850;53.178;6.376;2024-02-21T02:33:10;18.15;;;5.75;;
51792;SDS011;37850;53.178;6.376;2024-02-21T02:35:36;24.80;;;4.18;;
51792;SDS011;37850;53.178;6.376;2024-02-21T02:38:02;28.35;;;5.97;;
51792;SDS011;37850;53.178;6.376;2024-02-21T02:40:28;24.20;;;5.10;;
51792;SDS011;37850;53.178;6.376;2024-02-21T02:42:54;25.48;;;5.32;;
51792;SDS011;37850;53.178;6.376;2024-02-21T02:45:21;27.80;;;4.90;;
51792;SDS011;37850;53.178;6.376;2024-02-21T02:47:48;30.92;;;4.80;;
51792;SDS011;37850;53.178;6.376;2024-02-21T02:50:14;21.80;;;5.15;;
51792;SDS011;37850;53.178;6.376;2024-02-21T02:52:40;28.60;;;5.60;;
51792;SDS011;37850;53.178;6.376;2024-02-21T02:55:06;28.77;;;5.15;;
51792;SDS011;37850;53.178;6.376;2024-02-21T02:57:32;29.48;;;5.13;;
51792;SDS011;37850;53.178;6.376;2024-02-21T02:59:58;26.88;;;4.97;;
51792;SDS011;37850;53.178;6.376;2024-02-21T03:02:24;26.52;;;5.30;;
51792;SDS011;37850;53.178;6.376;2024-02-21T03:04:50;37.10;;;6.45;;
51792;SDS011;37850;53.178;6.376;2024-02-21T03:07:16;28.35;;;5.85;;
51792;SDS011;37850;53.178;6.376;2024-02-21T03:09:41;30.63;;;5.68;;
51792;SDS011;37850;53.178;6.376;2024-02-21T03:12:08;25.42;;;5.25;;
51792;SDS011;37850;53.178;6.376;2024-02-21T03:14:34;26.45;;;5.35;;
51792;SDS011;37850;53.178;6.376;2024-02-21T03:17:00;29.17;;;5.53;;
51792;SDS011;37850;53.178;6.376;2024-02-21T03:19:27;31.45;;;5.32;;
51792;SDS011;37850;53.178;6.376;2024-02-21T03:21:53;31.45;;;6.10;;
51792;SDS011;37850;53.178;6.376;2024-02-21T03:24:19;34.85;;;5.82;;
51792;SDS011;37850;53.178;6.376;2024-02-21T03:26:46;28.25;;;5.35;;
51792;SDS011;37850;53.178;6.376;2024-02-21T03:29:16;34.65;;;6.07;;
51792;SDS011;37850;53.178;6.376;2024-02-21T03:31:42;23.63;;;5.30;;
51792;SDS011;37850;53.178;6.376;2024-02-21T03:34:09;31.67;;;6.20;;
51792;SDS011;37850;53.178;6.376;2024-02-21T03:36:36;31.33;;;6.30;;
51792;SDS011;37850;53.178;6.376;2024-02-21T03:39:02;32.25;;;5.57;;
51792;SDS011;37850;53.178;6.376;2024-02-21T03:41:31;34.88;;;5.70;;
51792;SDS011;37850;53.178;6.376;2024-02-21T03:43:56;28.83;;;6.70;;
51792;SDS011;37850;53.178;6.376;2024-02-21T03:46:23;39.40;;;5.72;;
51792;SDS011;37850;53.178;6.376;2024-02-21T03:48:50;28.42;;;6.15;;
51792;SDS011;37850;53.178;6.376;2024-02-21T03:51:15;36.05;;;6.97;;
51792;SDS011;37850;53.178;6.376;2024-02-21T03:53:41;33.58;;;7.07;;
51792;SDS011;37850;53.178;6.376;2024-02-21T03:56:07;26.33;;;5.47;;
51792;SDS011;37850;53.178;6.376;2024-02-21T03:58:33;30.48;;;6.55;;
51792;SDS011;37850;53.178;6.376;2024-02-21T04:01:02;30.98;;;7.28;;
51792;SDS011;37850;53.178;6.376;2024-02-21T04:03:29;30.85;;;6.97;;
51792;SDS011;37850;53.178;6.376;2024-02-21T04:05:55;30.98;;;6.05;;
51792;SDS011;37850;53.178;6.376;2024-02-21T04:08:22;22.40;;;5.88;;
51792;SDS011;37850;53.178;6.376;2024-02-21T04:10:48;28.73;;;6.57;;
51792;SDS011;37850;53.178;6.376;2024-02-21T04:13:14;37.42;;;7.28;;
51792;SDS011;37850;53.178;6.376;2024-02-21T04:15:40;30.88;;;6.82;;
51792;SDS011;37850;53.178;6.376;2024-02-21T04:18:05;29.15;;;6.40;;
51792;SDS011;37850;53.178;6.376;2024-02-21T04:20:31;29.65;;;6.10;;
51792;SDS011;37850;53.178;6.376;2024-02-21T04:22:59;31.58;;;6.57;;
51792;SDS011;37850;53.178;6.376;2024-02-21T04:25:25;21.58;;;5.82;;
51792;SDS011;37850;53.178;6.376;2024-02-21T04:27:51;32.72;;;5.55;;
51792;SDS011;37850;53.178;6.376;2024-02-21T04:30:17;24.67;;;6.22;;
51792;SDS011;37850;53.178;6.376;2024-02-21T04:32:43;33.25;;;6.30;;
51792;SDS011;37850;53.178;6.376;2024-02-21T04:35:08;37.30;;;7.45;;
51792;SDS011;37850;53.178;6.376;2024-02-21T04:37:34;25.13;;;6.00;;
51792;SDS011;37850;53.178;6.376;2024-02-21T04:40:00;37.92;;;6.53;;
51792;SDS011;37850;53.178;6.376;2024-02-21T04:42:26;31.65;;;6.32;;
51792;SDS011;37850;53.178;6.376;2024-02-21T04:44:52;30.15;;;6.00;;
51792;SDS011;37850;53.178;6.376;2024-02-21T04:47:18;33.78;;;6.03;;
51792;SDS011;37850;53.178;6.376;2024-02-21T04:49:45;29.05;;;6.88;;
51792;SDS011;37850;53.178;6.376;2024-02-21T04:52:11;29.75;;;6.13;;
51792;SDS011;37850;53.178;6.376;2024-02-21T04:54:37;25.35;;;5.60;;
51792;SDS011;37850;53.178;6.376;2024-02-21T04:57:03;34.85;;;6.82;;
51792;SDS011;37850;53.178;6.376;2024-02-21T04:59:29;26.98;;;6.38;;
51792;SDS011;37850;53.178;6.376;2024-02-21T05:01:55;29.20;;;6.22;;
51792;SDS011;37850;53.178;6.376;2024-02-21T05:04:20;27.70;;;5.88;;
51792;SDS011;37850;53.178;6.376;2024-02-21T05:06:46;28.60;;;5.32;;
51792;SDS011;37850;53.178;6.376;2024-02-21T05:09:12;32.47;;;5.68;;
51792;SDS011;37850;53.178;6.376;2024-02-21T05:11:37;24.42;;;5.13;;
51792;SDS011;37850;53.178;6.376;2024-02-21T05:14:03;40.88;;;6.50;;
51792;SDS011;37850;53.178;6.376;2024-02-21T05:16:29;28.48;;;5.78;;
51792;SDS011;37850;53.178;6.376;2024-02-21T05:18:56;29.45;;;5.78;;
51792;SDS011;37850;53.178;6.376;2024-02-21T05:21:25;34.97;;;6.53;;
51792;SDS011;37850;53.178;6.376;2024-02-21T05:23:56;39.40;;;6.00;;
51792;SDS011;37850;53.178;6.376;2024-02-21T05:26:22;31.15;;;6.32;;
51792;SDS011;37850;53.178;6.376;2024-02-21T05:28:49;28.25;;;6.05;;
51792;SDS011;37850;53.178;6.376;2024-02-21T05:31:15;39.20;;;6.93;;
51792;SDS011;37850;53.178;6.376;2024-02-21T05:33:41;29.30;;;5.93;;
51792;SDS011;37850;53.178;6.376;2024-02-21T05:36:08;30.75;;;5.97;;
51792;SDS011;37850;53.178;6.376;2024-02-21T05:38:33;28.38;;;6.78;;
51792;SDS011;37850;53.178;6.376;2024-02-21T05:41:00;26.48;;;5.90;;
51792;SDS011;37850;53.178;6.376;2024-02-21T05:43:26;39.92;;;6.60;;
51792;SDS011;37850;53.178;6.376;2024-02-21T05:45:52;31.13;;;6.43;;
51792;SDS011;37850;53.178;6.376;2024-02-21T05:48:18;33.13;;;6.93;;
51792;SDS011;37850;53.178;6.376;2024-02-21T05:50:43;29.00;;;6.53;;
51792;SDS011;37850;53.178;6.376;2024-02-21T05:53:09;31.33;;;6.95;;
51792;SDS011;37850;53.178;6.376;2024-02-21T05:55:36;30.45;;;5.88;;
51792;SDS011;37850;53.178;6.376;2024-02-21T05:58:01;31.10;;;6.63;;
51792;SDS011;37850;53.178;6.376;2024-02-21T06:00:27;31.90;;;6.28;;
51792;SDS011;37850;53.178;6.376;2024-02-21T06:02:57;27.42;;;6.00;;
51792;SDS011;37850;53.178;6.376;2024-02-21T06:05:22;25.67;;;6.88;;
51792;SDS011;37850;53.178;6.376;2024-02-21T06:07:48;30.77;;;6.45;;
51792;SDS011;37850;53.178;6.376;2024-02-21T06:10:14;27.63;;;6.82;;
51792;SDS011;37850;53.178;6.376;2024-02-21T06:12:39;27.48;;;6.35;;
51792;SDS011;37850;53.178;6.376;2024-02-21T06:15:05;27.42;;;6.95;;
51792;SDS011;37850;53.178;6.376;2024-02-21T06:17:31;25.95;;;6.75;;
51792;SDS011;37850;53.178;6.376;2024-02-21T06:19:57;35.05;;;6.15;;
51792;SDS011;37850;53.178;6.376;2024-02-21T06:22:23;33.03;;;7.57;;
51792;SDS011;37850;53.178;6.376;2024-02-21T06:24:49;32.15;;;6.70;;
51792;SDS011;37850;53.178;6.376;2024-02-21T06:27:15;26.40;;;6.93;;
51792;SDS011;37850;53.178;6.376;2024-02-21T06:29:42;28.50;;;7.63;;
51792;SDS011;37850;53.178;6.376;2024-02-21T06:32:08;25.27;;;7.35;;
51792;SDS011;37850;53.178;6.376;2024-02-21T06:34:34;24.00;;;7.20;;
51792;SDS011;37850;53.178;6.376;2024-02-21T06:36:59;33.53;;;7.53;;
51792;SDS011;37850;53.178;6.376;2024-02-21T06:39:25;30.23;;;6.90;;
51792;SDS011;37850;53.178;6.376;2024-02-21T06:41:54;27.23;;;7.40;;
51792;SDS011;37850;53.178;6.376;2024-02-21T06:44:20;30.65;;;7.13;;
51792;SDS011;37850;53.178;6.376;2024-02-21T06:46:46;32.17;;;7.78;;
51792;SDS011;37850;53.178;6.376;2024-02-21T06:49:12;26.08;;;7.00;;
51792;SDS011;37850;53.178;6.376;2024-02-21T06:51:43;31.52;;;7.90;;
51792;SDS011;37850;53.178;6.376;2024-02-21T06:54:09;23.95;;;7.35;;
51792;SDS011;37850;53.178;6.376;2024-02-21T06:56:36;35.67;;;8.10;;
51792;SDS011;37850;53.178;6.376;2024-02-21T06:59:02;30.10;;;8.23;;
51792;SDS011;37850;53.178;6.376;2024-02-21T07:01:31;34.85;;;9.75;;
51792;SDS011;37850;53.178;6.376;2024-02-21T07:03:57;33.28;;;8.73;;
51792;SDS011;37850;53.178;6.376;2024-02-21T07:06:26;29.15;;;9.05;;
51792;SDS011;37850;53.178;6.376;2024-02-21T07:08:51;29.02;;;8.20;;
51792;SDS011;37850;53.178;6.376;2024-02-21T07:11:17;31.23;;;9.57;;
51792;SDS011;37850;53.178;6.376;2024-02-21T07:13:43;38.83;;;11.45;;
51792;SDS011;37850;53.178;6.376;2024-02-21T07:16:08;50.47;;;13.75;;
51792;SDS011;37850;53.178;6.376;2024-02-21T07:18:34;48.88;;;12.45;;
51792;SDS011;37850;53.178;6.376;2024-02-21T07:21:00;61.55;;;14.52;;
51792;SDS011;37850;53.178;6.376;2024-02-21T07:23:25;54.05;;;13.90;;
51792;SDS011;37850;53.178;6.376;2024-02-21T07:25:51;55.97;;;13.93;;
51792;SDS011;37850;53.178;6.376;2024-02-21T07:28:17;43.30;;;12.52;;
51792;SDS011;37850;53.178;6.376;2024-02-21T07:30:43;35.15;;;12.38;;
51792;SDS011;37850;53.178;6.376;2024-02-21T07:33:09;47.22;;;12.93;;
51792;SDS011;37850;53.178;6.376;2024-02-21T07:35:34;43.33;;;12.20;;
51792;SDS011;37850;53.178;6.376;2024-02-21T07:38:03;47.15;;;11.75;;
51792;SDS011;37850;53.178;6.376;2024-02-21T07:40:30;40.80;;;11.43;;
51792;SDS011;37850;53.178;6.376;2024-02-21T07:42:55;49.25;;;11.23;;
51792;SDS011;37850;53.178;6.376;2024-02-21T07:45:21;37.40;;;10.00;;
51792;SDS011;37850;53.178;6.376;2024-02-21T07:47:49;39.95;;;9.95;;
51792;SDS011;37850;53.178;6.376;2024-02-21T07:50:15;33.00;;;9.63;;
51792;SDS011;37850;53.178;6.376;2024-02-21T07:52:40;37.60;;;8.60;;
51792;SDS011;37850;53.178;6.376;2024-02-21T07:55:07;28.83;;;8.93;;
51792;SDS011;37850;53.178;6.376;2024-02-21T07:57:35;27.55;;;7.25;;
51792;SDS011;37850;53.178;6.376;2024-02-21T08:00:02;27.73;;;7.25;;
51792;SDS011;37850;53.178;6.376;2024-02-21T08:02:29;27.60;;;7.05;;
51792;SDS011;37850;53.178;6.376;2024-02-21T08:04:55;28.63;;;6.07;;
51792;SDS011;37850;53.178;6.376;2024-02-21T08:07:20;33.47;;;6.10;;
51792;SDS011;37850;53.178;6.376;2024-02-21T08:09:46;26.98;;;5.47;;
51792;SDS011;37850;53.178;6.376;2024-02-21T08:12:12;23.50;;;5.50;;
51792;SDS011;37850;53.178;6.376;2024-02-21T08:14:37;22.02;;;5.20;;
51792;SDS011;37850;53.178;6.376;2024-02-21T08:17:03;27.17;;;5.93;;
51792;SDS011;37850;53.178;6.376;2024-02-21T08:19:29;18.27;;;4.88;;
51792;SDS011;37850;53.178;6.376;2024-02-21T08:21:55;18.40;;;5.40;;
51792;SDS011;37850;53.178;6.376;2024-02-21T08:24:21;24.88;;;5.90;;
51792;SDS011;37850;53.178;6.376;2024-02-21T08:26:48;24.80;;;5.80;;
51792;SDS011;37850;53.178;6.376;2024-02-21T08:29:13;20.83;;;5.40;;
51792;SDS011;37850;53.178;6.376;2024-02-21T08:31:39;24.35;;;5.65;;
51792;SDS011;37850;53.178;6.376;2024-02-21T08:34:05;22.40;;;6.95;;
51792;SDS011;37850;53.178;6.376;2024-02-21T08:36:31;28.10;;;7.32;;
51792;SDS011;37850;53.178;6.376;2024-02-21T08:39:00;21.30;;;6.40;;
51792;SDS011;37850;53.178;6.376;2024-02-21T08:41:27;25.75;;;7.35;;
51792;SDS011;37850;53.178;6.376;2024-02-21T08:43:55;28.05;;;7.53;;
51792;SDS011;37850;53.178;6.376;2024-02-21T08:46:21;27.77;;;7.63;;
51792;SDS011;37850;53.178;6.376;2024-02-21T08:48:50;21.02;;;7.88;;
51792;SDS011;37850;53.178;6.376;2024-02-21T08:51:16;26.90;;;8.65;;
51792;SDS011;37850;53.178;6.376;2024-02-21T08:53:46;26.65;;;8.95;;
51792;SDS011;37850;53.178;6.376;2024-02-21T08:56:13;26.75;;;10.18;;
51792;SDS011;37850;53.178;6.376;2024-02-21T08:58:39;28.67;;;10.88;;
51792;SDS011;37850;53.178;6.376;2024-02-21T09:01:05;30.05;;;11.68;;
51792;SDS011;37850;53.178;6.376;2024-02-21T09:03:35;37.13;;;13.80;;
51792;SDS011;37850;53.178;6.376;2024-02-21T09:06:01;34.10;;;14.63;;
51792;SDS011;37850;53.178;6.376;2024-02-21T09:08:27;30.25;;;14.52;;
51792;SDS011;37850;53.178;6.376;2024-02-21T09:10:54;33.85;;;13.60;;
51792;SDS011;37850;53.178;6.376;2024-02-21T09:13:20;29.20;;;15.50;;
51792;SDS011;37850;53.178;6.376;2024-02-21T09:15:47;36.80;;;15.90;;
51792;SDS011;37850;53.178;6.376;2024-02-21T09:18:14;33.13;;;15.95;;
51792;SDS011;37850;53.178;6.376;2024-02-21T09:20:40;36.63;;;17.20;;
51792;SDS011;37850;53.178;6.376;2024-02-21T09:23:06;30.85;;;17.38;;
51792;SDS011;37850;53.178;6.376;2024-02-21T09:25:31;37.53;;;18.35;;
51792;SDS011;37850;53.178;6.376;2024-02-21T09:27:57;43.33;;;18.42;;
51792;SDS011;37850;53.178;6.376;2024-02-21T09:30:24;39.33;;;17.88;;
51792;SDS011;37850;53.178;6.376;2024-02-21T09:32:49;32.60;;;16.95;;
51792;SDS011;37850;53.178;6.376;2024-02-21T09:35:15;37.35;;;17.38;;
51792;SDS011;37850;53.178;6.376;2024-02-21T09:37:41;35.80;;;16.63;;
51792;SDS011;37850;53.178;6.376;2024-02-21T09:40:07;29.52;;;18.17;;
51792;SDS011;37850;53.178;6.376;2024-02-21T09:42:37;39.90;;;17.20;;
51792;SDS011;37850;53.178;6.376;2024-02-21T09:45:07;31.45;;;17.50;;
51792;SDS011;37850;53.178;6.376;2024-02-21T09:50:26;29.52;;;16.48;;
51792;SDS011;37850;53.178;6.376;2024-02-21T09:52:52;34.55;;;18.00;;
51792;SDS011;37850;53.178;6.376;2024-02-21T09:55:19;29.75;;;16.50;;
51792;SDS011;37850;53.178;6.376;2024-02-21T09:57:46;30.30;;;16.95;;
51792;SDS011;37850;53.178;6.376;2024-02-21T10:00:13;38.58;;;16.63;;
51792;SDS011;37850;53.178;6.376;2024-02-21T10:02:47;30.80;;;15.93;;
51792;SDS011;37850;53.178;6.376;2024-02-21T10:05:14;29.17;;;16.30;;
51792;SDS011;37850;53.178;6.376;2024-02-21T10:07:40;32.85;;;16.73;;
51792;SDS011;37850;53.178;6.376;2024-02-21T10:10:06;32.60;;;16.98;;
51792;SDS011;37850;53.178;6.376;2024-02-21T10:12:33;27.90;;;16.77;;
51792;SDS011;37850;53.178;6.376;2024-02-21T10:15:05;30.08;;;16.75;;
51792;SDS011;37850;53.178;6.376;2024-02-21T10:17:35;33.08;;;16.35;;
51792;SDS011;37850;53.178;6.376;2024-02-21T10:20:10;28.70;;;15.88;;
51792;SDS011;37850;53.178;6.376;2024-02-21T10:22:37;33.22;;;15.35;;
51792;SDS011;37850;53.178;6.376;2024-02-21T10:25:11;29.10;;;16.70;;
51792;SDS011;37850;53.178;6.376;2024-02-21T10:27:38;32.15;;;17.08;;
51792;SDS011;37850;53.178;6.376;2024-02-21T10:30:08;32.63;;;16.35;;
51792;SDS011;37850;53.178;6.376;2024-02-21T10:32:49;32.55;;;16.63;;
51792;SDS011;37850;53.178;6.376;2024-02-21T10:35:31;29.98;;;16.73;;
51792;SDS011;37850;53.178;6.376;2024-02-21T10:37:58;31.92;;;17.02;;
51792;SDS011;37850;53.178;6.376;2024-02-21T10:40:28;29.45;;;17.77;;
51792;SDS011;37850;53.178;6.376;2024-02-21T10:43:02;32.30;;;18.02;;
51792;SDS011;37850;53.178;6.376;2024-02-21T10:45:34;35.40;;;17.58;;
51792;SDS011;37850;53.178;6.376;2024-02-21T10:48:36;30.48;;;17.75;;
51792;SDS011;37850;53.178;6.376;2024-02-21T10:51:03;34.53;;;17.98;;
51792;SDS011;37850;53.178;6.376;2024-02-21T10:56:16;33.95;;;19.25;;
51792;SDS011;37850;53.178;6.376;2024-02-21T10:58:53;30.65;;;17.85;;
51792;SDS011;37850;53.178;6.376;2024-02-21T11:01:21;34.80;;;18.88;;
51792;SDS011;37850;53.178;6.376;2024-02-21T11:03:48;34.30;;;19.65;;
51792;SDS011;37850;53.178;6.376;2024-02-21T11:06:17;37.03;;;18.90;;
51792;SDS011;37850;53.178;6.376;2024-02-21T11:08:45;28.13;;;18.83;;
51792;SDS011;37850;53.178;6.376;2024-02-21T11:11:12;30.85;;;19.23;;
51792;SDS011;37850;53.178;6.376;2024-02-21T11:13:42;35.38;;;18.67;;
51792;SDS011;37850;53.178;6.376;2024-02-21T11:16:08;29.65;;;17.52;;
51792;SDS011;37850;53.178;6.376;2024-02-21T11:18:38;33.65;;;17.67;;
51792;SDS011;37850;53.178;6.376;2024-02-21T11:21:05;29.80;;;18.80;;
51792;SDS011;37850;53.178;6.376;2024-02-21T11:23:32;24.60;;;17.08;;
51792;SDS011;37850;53.178;6.376;2024-02-21T11:26:10;29.77;;;16.67;;
51792;SDS011;37850;53.178;6.376;2024-02-21T11:28:44;30.85;;;17.27;;
51792;SDS011;37850;53.178;6.376;2024-02-21T11:31:13;31.42;;;17.30;;
51792;SDS011;37850;53.178;6.376;2024-02-21T11:33:42;32.25;;;16.73;;
51792;SDS011;37850;53.178;6.376;2024-02-21T11:36:09;28.50;;;16.52;;
51792;SDS011;37850;53.178;6.376;2024-02-21T11:38:35;31.60;;;16.50;;
51792;SDS011;37850;53.178;6.376;2024-02-21T11:41:01;25.70;;;16.25;;
51792;SDS011;37850;53.178;6.376;2024-02-21T11:43:27;27.92;;;16.02;;
51792;SDS011;37850;53.178;6.376;2024-02-21T11:46:00;26.73;;;15.27;;
51792;SDS011;37850;53.178;6.376;2024-02-21T11:48:28;23.05;;;14.40;;
51792;SDS011;37850;53.178;6.376;2024-02-21T11:50:55;25.73;;;14.43;;
51792;SDS011;37850;53.178;6.376;2024-02-21T11:53:22;22.48;;;13.48;;
51792;SDS011;37850;53.178;6.376;2024-02-21T11:55:48;21.45;;;13.73;;
51792;SDS011;37850;53.178;6.376;2024-02-21T11:58:14;25.52;;;14.48;;
51792;SDS011;37850;53.178;6.376;2024-02-21T12:00:41;24.77;;;13.60;;
51792;SDS011;37850;53.178;6.376;2024-02-21T12:03:06;20.90;;;13.00;;
51792;SDS011;37850;53.178;6.376;2024-02-21T12:05:33;22.33;;;12.75;;
51792;SDS011;37850;53.178;6.376;2024-02-21T12:07:59;22.88;;;12.95;;
51792;SDS011;37850;53.178;6.376;2024-02-21T12:10:25;24.95;;;13.15;;
51792;SDS011;37850;53.178;6.376;2024-02-21T12:13:16;24.27;;;12.20;;
51792;SDS011;37850;53.178;6.376;2024-02-21T12:15:40;23.25;;;11.73;;
51792;SDS011;37850;53.178;6.376;2024-02-21T12:18:06;23.65;;;10.77;;
51792;SDS011;37850;53.178;6.376;2024-02-21T12:20:32;21.70;;;11.07;;
51792;SDS011;37850;53.178;6.376;2024-02-21T12:23:01;18.17;;;10.40;;
51792;SDS011;37850;53.178;6.376;2024-02-21T12:25:28;21.85;;;10.80;;
51792;SDS011;37850;53.178;6.376;2024-02-21T12:27:54;19.90;;;10.88;;
51792;SDS011;37850;53.178;6.376;2024-02-21T12:30:21;19.05;;;10.23;;
51792;SDS011;37850;53.178;6.376;2024-02-21T12:32:47;21.05;;;9.65;;
51792;SDS011;37850;53.178;6.376;2024-02-21T12:35:13;17.88;;;10.57;;
51792;SDS011;37850;53.178;6.376;2024-02-21T12:37:39;20.20;;;9.85;;
51792;SDS011;37850;53.178;6.376;2024-02-21T12:40:05;14.27;;;8.80;;
51792;SDS011;37850;53.178;6.376;2024-02-21T12:42:35;16.98;;;9.40;;
51792;SDS011;37850;53.178;6.376;2024-02-21T12:45:02;18.50;;;9.18;;
51792;SDS011;37850;53.178;6.376;2024-02-21T12:47:28;18.92;;;9.55;;
51792;SDS011;37850;53.178;6.376;2024-02-21T12:49:54;15.02;;;9.63;;
51792;SDS011;37850;53.178;6.376;2024-02-21T12:52:20;17.75;;;9.20;;
51792;SDS011;37850;53.178;6.376;2024-02-21T12:54:46;20.15;;;10.13;;
51792;SDS011;37850;53.178;6.376;2024-02-21T12:57:12;17.35;;;9.68;;
51792;SDS011;37850;53.178;6.376;2024-02-21T12:59:38;19.50;;;9.35;;
51792;SDS011;37850;53.178;6.376;2024-02-21T13:02:04;23.30;;;10.60;;
51792;SDS011;37850;53.178;6.376;2024-02-21T13:04:30;21.27;;;9.85;;
51792;SDS011;37850;53.178;6.376;2024-02-21T13:06:56;21.00;;;10.55;;
51792;SDS011;37850;53.178;6.376;2024-02-21T13:09:22;22.23;;;10.13;;
51792;SDS011;37850;53.178;6.376;2024-02-21T13:11:47;19.77;;;9.23;;
51792;SDS011;37850;53.178;6.376;2024-02-21T13:14:13;18.83;;;8.70;;
51792;SDS011;37850;53.178;6.376;2024-02-21T13:16:39;19.95;;;9.13;;
51792;SDS011;37850;53.178;6.376;2024-02-21T13:19:06;16.27;;;8.38;;
51792;SDS011;37850;53.178;6.376;2024-02-21T13:21:33;17.52;;;7.82;;
51792;SDS011;37850;53.178;6.376;2024-02-21T13:24:00;13.60;;;7.47;;
51792;SDS011;37850;53.178;6.376;2024-02-21T13:26:26;16.95;;;7.50;;
51792;SDS011;37850;53.178;6.376;2024-02-21T13:28:52;13.95;;;7.45;;
51792;SDS011;37850;53.178;6.376;2024-02-21T13:31:18;12.80;;;6.93;;
51792;SDS011;37850;53.178;6.376;2024-02-21T13:33:44;15.38;;;7.30;;
51792;SDS011;37850;53.178;6.376;2024-02-21T13:36:10;11.77;;;6.80;;
51792;SDS011;37850;53.178;6.376;2024-02-21T13:38:36;15.32;;;7.03;;
51792;SDS011;37850;53.178;6.376;2024-02-21T13:41:03;13.20;;;6.45;;
51792;SDS011;37850;53.178;6.376;2024-02-21T13:43:33;13.48;;;6.53;;
51792;SDS011;37850;53.178;6.376;2024-02-21T13:46:00;14.07;;;6.65;;
51792;SDS011;37850;53.178;6.376;2024-02-21T13:48:30;12.77;;;5.63;;
51792;SDS011;37850;53.178;6.376;2024-02-21T13:50:57;9.35;;;5.50;;
51792;SDS011;37850;53.178;6.376;2024-02-21T13:53:23;10.70;;;5.93;;
51792;SDS011;37850;53.178;6.376;2024-02-21T13:55:49;12.65;;;5.82;;
51792;SDS011;37850;53.178;6.376;2024-02-21T13:58:15;10.95;;;6.00;;
51792;SDS011;37850;53.178;6.376;2024-02-21T14:00:41;11.38;;;5.32;;
51792;SDS011;37850;53.178;6.376;2024-02-21T14:03:07;11.50;;;6.03;;
51792;SDS011;37850;53.178;6.376;2024-02-21T14:05:33;10.48;;;5.80;;
51792;SDS011;37850;53.178;6.376;2024-02-21T14:07:58;15.20;;;6.35;;
51792;SDS011;37850;53.178;6.376;2024-02-21T14:10:24;11.20;;;6.07;;
51792;SDS011;37850;53.178;6.376;2024-02-21T14:12:50;11.70;;;5.63;;
51792;SDS011;37850;53.178;6.376;2024-02-21T14:15:16;15.05;;;6.38;;
51792;SDS011;37850;53.178;6.376;2024-02-21T14:17:42;11.73;;;5.57;;
51792;SDS011;37850;53.178;6.376;2024-02-21T14:20:08;12.15;;;6.03;;
51792;SDS011;37850;53.178;6.376;2024-02-21T14:22:34;10.88;;;6.05;;
51792;SDS011;37850;53.178;6.376;2024-02-21T14:25:03;10.23;;;5.57;;
51792;SDS011;37850;53.178;6.376;2024-02-21T14:27:30;9.50;;;5.75;;
51792;SDS011;37850;53.178;6.376;2024-02-21T14:29:57;10.77;;;6.20;;
51792;SDS011;37850;53.178;6.376;2024-02-21T14:32:22;12.25;;;6.10;;
51792;SDS011;37850;53.178;6.376;2024-02-21T14:34:48;10.95;;;5.43;;
51792;SDS011;37850;53.178;6.376;2024-02-21T14:37:15;12.88;;;5.32;;